createdAt,value
2019-02-21T00:02:23.913Z,10.70
2019-02-21T00:04:53.390Z,9.78
2019-02-21T00:07:22.908Z,10.38
2019-02-21T00:09:52.292Z,10.08
2019-02-21T00:12:21.871Z,10.65
2019-02-21T00:14:51.543Z,10.53
2019-02-21T00:17:21.123Z,10.60
2019-02-21T00:19:50.598Z,9.80
2019-02-21T00:22:20.095Z,10.28
2019-02-21T00:24:49.539Z,9.00
2019-02-21T00:27:18.888Z,10.70
2019-02-21T00:29:48.268Z,9.20
2019-02-21T00:32:17.951Z,9.83
2019-02-21T00:34:47.432Z,9.78
2019-02-21T00:37:16.912Z,10.32
2019-02-21T00:39:46.476Z,10.23
2019-02-21T00:42:16.126Z,8.90
2019-02-21T00:44:45.850Z,9.40
2019-02-21T00:47:15.349Z,8.95
2019-02-21T00:49:45.067Z,9.23
2019-02-21T00:52:14.691Z,8.70
2019-02-21T00:54:44.098Z,8.65
2019-02-21T00:57:13.420Z,10.45
2019-02-21T00:59:42.824Z,9.75
2019-02-21T01:02:12.447Z,9.38
2019-02-21T01:04:41.858Z,10.65
2019-02-21T01:07:11.317Z,10.30
2019-02-21T01:09:40.790Z,9.90
2019-02-21T01:12:10.245Z,9.73
2019-02-21T01:14:39.659Z,9.88
2019-02-21T01:17:09.180Z,10.10
2019-02-21T01:19:38.650Z,9.50
2019-02-21T01:22:08.035Z,9.93
2019-02-21T01:24:37.518Z,9.58
2019-02-21T01:27:06.964Z,8.63
2019-02-21T01:29:36.319Z,9.30
2019-02-21T01:32:05.970Z,8.95
2019-02-21T01:34:35.419Z,9.08
2019-02-21T01:37:04.994Z,8.60
2019-02-21T01:39:34.376Z,8.20
2019-02-21T01:42:03.854Z,8.90
2019-02-21T01:44:33.513Z,8.20
2019-02-21T01:47:02.838Z,8.30
2019-02-21T01:49:32.321Z,9.05
2019-02-21T01:52:01.829Z,9.03
2019-02-21T01:54:31.386Z,9.55
2019-02-21T01:57:00.962Z,9.45
2019-02-21T01:59:30.444Z,9.10
2019-02-21T02:01:59.955Z,9.38
2019-02-21T02:04:29.711Z,9.65
2019-02-21T02:06:59.483Z,9.80
2019-02-21T02:09:29.608Z,9.40
2019-02-21T02:11:59.658Z,9.58
2019-02-21T02:14:29.338Z,9.98
2019-02-21T02:16:59.218Z,9.23
2019-02-21T02:19:29.074Z,8.83
2019-02-21T02:21:58.986Z,9.35
2019-02-21T02:24:28.932Z,9.35
2019-02-21T02:26:58.790Z,8.58
2019-02-21T02:29:28.567Z,8.63
2019-02-21T02:31:58.518Z,8.60
2019-02-21T02:34:28.304Z,8.73
2019-02-21T02:36:58.056Z,9.18
2019-02-21T02:39:27.873Z,8.85
2019-02-21T02:41:57.615Z,9.33
2019-02-21T02:44:27.443Z,9.43
2019-02-21T02:46:57.223Z,8.83
2019-02-21T02:49:26.900Z,9.15
2019-02-21T02:51:56.784Z,9.58
2019-02-21T02:54:26.635Z,8.95
2019-02-21T02:56:56.513Z,8.85
2019-02-21T02:59:26.368Z,8.63
2019-02-21T03:01:56.148Z,8.98
2019-02-21T03:04:26.117Z,9.05
2019-02-21T03:06:56.123Z,9.35
2019-02-21T03:09:25.733Z,9.03
2019-02-21T03:11:55.891Z,8.00
2019-02-21T03:14:25.824Z,8.53
2019-02-21T03:16:55.585Z,8.33
2019-02-21T03:19:25.733Z,8.18
2019-02-21T03:21:55.515Z,8.78
2019-02-21T03:24:25.153Z,8.25
2019-02-21T03:26:55.074Z,8.60
2019-02-21T03:29:24.788Z,8.75
2019-02-21T03:31:56.151Z,8.95
2019-02-21T03:34:25.972Z,8.68
2019-02-21T03:36:55.835Z,8.70
2019-02-21T03:39:25.710Z,8.48
2019-02-21T03:41:55.486Z,8.48
2019-02-21T03:44:25.327Z,9.03
2019-02-21T03:46:55.089Z,8.35
2019-02-21T03:49:24.909Z,8.18
2019-02-21T03:51:54.759Z,8.55
2019-02-21T03:54:24.811Z,8.30
2019-02-21T03:56:56.040Z,7.90
2019-02-21T03:59:25.964Z,8.25
2019-02-21T04:02:04.906Z,8.65
2019-02-21T04:04:27.556Z,8.43
2019-02-21T04:06:57.337Z,9.53
2019-02-21T04:09:27.090Z,9.40
2019-02-21T04:11:57.037Z,8.35
2019-02-21T04:14:27.054Z,8.80
2019-02-21T04:16:57.904Z,9.28
2019-02-21T04:19:27.760Z,8.63
2019-02-21T04:21:57.808Z,8.78
2019-02-21T04:24:27.733Z,9.03
2019-02-21T04:26:57.693Z,8.70
2019-02-21T04:29:27.545Z,8.80
2019-02-21T04:31:57.602Z,8.75
2019-02-21T04:34:27.457Z,8.88
2019-02-21T04:36:57.072Z,9.10
2019-02-21T04:39:27.118Z,9.08
2019-02-21T04:41:57.054Z,8.28
2019-02-21T04:44:26.854Z,9.08
2019-02-21T04:46:56.539Z,8.50
2019-02-21T04:49:26.580Z,8.88
2019-02-21T04:51:56.375Z,9.40
2019-02-21T04:54:26.405Z,9.45
2019-02-21T04:56:56.231Z,9.48
2019-02-21T04:59:25.938Z,9.93
2019-02-21T05:01:55.725Z,9.30
2019-02-21T05:04:25.685Z,9.35
2019-02-21T05:06:55.565Z,10.32
2019-02-21T05:09:27.177Z,8.93
2019-02-21T05:11:57.019Z,8.98
2019-02-21T05:14:26.962Z,8.95
2019-02-21T05:16:56.715Z,9.55
2019-02-21T05:19:26.523Z,9.93
2019-02-21T05:21:56.277Z,10.68
2019-02-21T05:24:26.097Z,9.20
2019-02-21T05:27:00.554Z,9.40
2019-02-21T05:29:30.313Z,10.00
2019-02-21T05:32:16.764Z,9.73
2019-02-21T05:34:48.845Z,9.68
2019-02-21T05:37:22.997Z,9.30
2019-02-21T05:39:54.666Z,9.43
2019-02-21T05:42:32.386Z,9.75
2019-02-21T05:45:18.657Z,10.10
2019-02-21T05:47:53.070Z,9.90
2019-02-21T05:50:30.432Z,10.45
2019-02-21T05:53:08.272Z,9.83
2019-02-21T05:55:45.860Z,9.18
2019-02-21T05:58:17.344Z,9.80
2019-02-21T06:00:48.778Z,9.78
2019-02-21T06:03:18.583Z,10.08
2019-02-21T06:05:48.383Z,10.70
2019-02-21T06:08:28.355Z,9.95
2019-02-21T06:11:02.449Z,10.10
2019-02-21T06:16:04.657Z,9.15
2019-02-21T06:18:52.578Z,9.58
2019-02-21T06:21:26.982Z,9.53
2019-02-21T06:24:16.331Z,10.20
2019-02-21T06:26:47.831Z,10.45
2019-02-21T06:29:19.184Z,10.43
2019-02-21T06:31:49.011Z,10.95
2019-02-21T06:34:18.789Z,10.63
2019-02-21T06:36:48.550Z,11.12
2019-02-21T06:39:18.357Z,10.28
2019-02-21T06:41:58.694Z,11.38
2019-02-21T06:44:22.492Z,10.58
2019-02-21T06:46:52.279Z,11.65
2019-02-21T06:49:31.788Z,9.43
2019-02-21T06:51:53.470Z,10.48
2019-02-21T06:54:23.325Z,10.93
2019-02-21T06:56:53.217Z,10.20
2019-02-21T06:59:23.794Z,11.28
2019-02-21T07:01:53.825Z,10.60
2019-02-21T07:04:23.850Z,12.58
2019-02-21T07:06:53.804Z,11.95
2019-02-21T07:09:23.666Z,13.20
2019-02-21T07:11:53.453Z,12.50
2019-02-21T07:14:23.070Z,11.40
2019-02-21T07:16:53.221Z,11.80
2019-02-21T07:19:22.911Z,10.95
2019-02-21T07:21:52.729Z,11.45
2019-02-21T07:24:22.923Z,11.83
2019-02-21T07:26:52.542Z,12.10
2019-02-21T07:29:22.319Z,11.18
2019-02-21T07:31:52.178Z,11.30
2019-02-21T07:34:22.058Z,11.33
2019-02-21T07:36:51.822Z,11.10
2019-02-21T07:39:21.681Z,10.63
2019-02-21T07:41:51.535Z,10.85
2019-02-21T07:44:21.417Z,10.72
2019-02-21T07:46:53.320Z,11.05
2019-02-21T07:49:22.542Z,10.35
2019-02-21T07:51:52.227Z,11.20
2019-02-21T07:54:22.102Z,10.88
2019-02-21T07:56:52.029Z,11.03
2019-02-21T07:59:21.725Z,11.73
2019-02-21T08:01:51.509Z,11.93
2019-02-21T08:04:21.130Z,11.15
2019-02-21T08:06:50.918Z,14.80
2019-02-21T08:09:20.745Z,14.07
2019-02-21T08:11:50.528Z,13.68
2019-02-21T08:14:20.455Z,13.45
2019-02-21T08:16:50.098Z,13.05
2019-02-21T08:19:39.038Z,12.80
2019-02-21T08:22:08.681Z,12.05
2019-02-21T08:24:38.368Z,11.60
2019-02-21T08:27:08.147Z,11.18
2019-02-21T08:29:37.907Z,11.22
2019-02-21T08:32:07.929Z,12.60
2019-02-21T08:34:39.252Z,13.62
2019-02-21T08:37:09.155Z,12.55
2019-02-21T08:39:38.945Z,13.55
2019-02-21T08:42:08.973Z,15.48
2019-02-21T08:44:38.927Z,13.70
2019-02-21T08:47:08.782Z,13.85
2019-02-21T08:49:38.433Z,13.53
2019-02-21T08:52:08.355Z,14.55
2019-02-21T08:54:38.238Z,14.90
2019-02-21T08:57:08.157Z,13.25
2019-02-21T08:59:38.011Z,14.18
2019-02-21T09:02:07.841Z,14.60
2019-02-21T09:04:37.617Z,14.58
2019-02-21T09:07:07.378Z,14.60
2019-02-21T09:09:37.162Z,14.65
2019-02-21T09:12:07.119Z,15.05
2019-02-21T09:14:37.069Z,14.00
2019-02-21T09:17:06.852Z,14.03
2019-02-21T09:19:36.966Z,13.25
2019-02-21T09:22:06.811Z,14.33
2019-02-21T09:24:40.163Z,14.07
2019-02-21T09:27:08.227Z,14.55
2019-02-21T09:29:37.984Z,15.00
2019-02-21T09:32:07.838Z,15.00
2019-02-21T09:34:37.588Z,15.45
2019-02-21T09:37:07.636Z,14.00
2019-02-21T09:39:37.566Z,14.30
2019-02-21T09:42:07.386Z,16.40
2019-02-21T09:44:38.707Z,14.90
2019-02-21T09:47:08.873Z,15.18
2019-02-21T09:49:38.628Z,15.10
2019-02-21T09:52:08.651Z,15.90
2019-02-21T09:54:38.467Z,15.05
2019-02-21T09:57:13.344Z,15.60
2019-02-21T09:59:39.865Z,15.72
2019-02-21T10:02:09.732Z,16.40
2019-02-21T10:04:39.614Z,15.85
2019-02-21T10:07:09.470Z,15.32
2019-02-21T10:09:39.419Z,14.90
2019-02-21T10:12:09.277Z,14.33
2019-02-21T10:14:39.059Z,15.98
2019-02-21T10:17:08.814Z,15.90
2019-02-21T10:19:38.841Z,15.98
2019-02-21T10:22:08.799Z,15.20
2019-02-21T10:24:38.754Z,16.90
2019-02-21T10:27:08.530Z,15.13
2019-02-21T10:29:38.294Z,16.02
2019-02-21T10:32:08.176Z,16.60
2019-02-21T10:34:43.032Z,17.62
2019-02-21T10:37:09.707Z,17.07
2019-02-21T10:39:39.391Z,15.63
2019-02-21T10:42:09.173Z,16.42
2019-02-21T10:44:38.793Z,15.13
2019-02-21T10:47:08.482Z,16.45
2019-02-21T10:49:38.090Z,15.50
2019-02-21T10:52:07.774Z,16.17
2019-02-21T10:54:37.424Z,16.57
2019-02-21T10:57:07.240Z,17.12
2019-02-21T10:59:46.130Z,16.23
2019-02-21T11:02:08.436Z,14.58
2019-02-21T11:04:38.078Z,15.83
2019-02-21T11:07:07.742Z,15.40
2019-02-21T11:09:37.447Z,14.63
2019-02-21T11:12:07.681Z,14.70
2019-02-21T11:14:47.316Z,14.47
2019-02-21T11:17:09.377Z,14.07
2019-02-21T11:19:39.196Z,14.75
2019-02-21T11:22:08.990Z,14.75
2019-02-21T11:24:38.964Z,15.05
2019-02-21T11:27:08.827Z,14.05
2019-02-21T11:29:38.658Z,12.35
2019-02-21T11:32:08.578Z,13.50
2019-02-21T11:34:38.468Z,12.95
2019-02-21T11:37:08.338Z,12.47
2019-02-21T11:39:37.970Z,12.35
2019-02-21T11:42:07.617Z,11.25
2019-02-21T11:44:37.488Z,11.35
2019-02-21T11:47:07.377Z,10.85
2019-02-21T11:49:37.004Z,11.88
2019-02-21T11:52:10.295Z,10.45
2019-02-21T11:54:38.157Z,10.65
2019-02-21T11:57:07.966Z,10.18
2019-02-21T11:59:37.665Z,9.65
2019-02-21T12:02:07.654Z,8.75
2019-02-21T12:04:37.354Z,9.28
2019-02-21T12:07:07.186Z,8.28
2019-02-21T12:09:36.977Z,8.93
2019-02-21T12:12:06.674Z,8.03
2019-02-21T12:14:36.524Z,8.53
2019-02-21T12:17:06.386Z,8.35
2019-02-21T12:19:36.173Z,8.43
2019-02-21T12:22:06.041Z,8.18
2019-02-21T12:24:36.090Z,7.50
2019-02-21T12:27:05.960Z,8.40
2019-02-21T12:29:36.397Z,8.08
2019-02-21T12:32:06.427Z,8.30
2019-02-21T12:34:36.229Z,7.95
2019-02-21T12:37:06.282Z,8.18
2019-02-21T12:39:35.974Z,7.85
2019-02-21T12:42:05.802Z,6.97
2019-02-21T12:44:35.557Z,8.03
2019-02-21T12:47:05.347Z,7.40
2019-02-21T12:49:35.211Z,7.72
2019-02-21T12:52:06.513Z,7.92
2019-02-21T12:54:36.374Z,7.90
2019-02-21T12:57:06.196Z,8.13
2019-02-21T12:59:35.884Z,7.85
2019-02-21T13:02:05.843Z,8.98
2019-02-21T13:04:35.705Z,7.30
2019-02-21T13:07:05.516Z,8.55
2019-02-21T13:09:35.272Z,7.92
2019-02-21T13:12:05.106Z,8.90
2019-02-21T13:14:34.996Z,8.53
2019-02-21T13:17:04.825Z,8.95
2019-02-21T13:19:34.616Z,7.58
2019-02-21T13:22:04.451Z,7.10
2019-02-21T13:24:35.638Z,6.78
2019-02-21T13:27:05.338Z,6.62
2019-02-21T13:29:35.123Z,6.97
2019-02-21T13:32:04.888Z,6.95
2019-02-21T13:34:34.743Z,6.83
2019-02-21T13:37:04.603Z,6.78
2019-02-21T13:39:34.405Z,7.00
2019-02-21T13:42:04.167Z,7.12
2019-02-21T13:44:34.008Z,7.17
2019-02-21T13:47:03.792Z,6.78
2019-02-21T13:49:33.589Z,7.12
2019-02-21T13:52:03.453Z,7.53
2019-02-21T13:54:33.312Z,7.37
2019-02-21T13:57:03.366Z,7.40
2019-02-21T13:59:34.992Z,7.10
2019-02-21T14:02:04.752Z,8.93
2019-02-21T14:04:34.616Z,10.03
2019-02-21T14:07:04.450Z,10.20
2019-02-21T14:09:34.142Z,8.55
2019-02-21T14:12:04.176Z,9.18
2019-02-21T14:14:34.058Z,8.93
2019-02-21T14:17:04.090Z,9.15
2019-02-21T14:19:34.151Z,9.83
2019-02-21T14:22:04.011Z,10.15
2019-02-21T14:24:37.199Z,10.50
2019-02-21T14:27:05.653Z,10.45
2019-02-21T14:29:39.414Z,10.05
2019-02-21T14:32:07.150Z,11.05
2019-02-21T14:34:37.108Z,10.95
2019-02-21T14:37:06.977Z,10.65
2019-02-21T14:39:36.796Z,10.98
2019-02-21T14:42:06.731Z,10.65
2019-02-21T14:44:36.564Z,11.18
2019-02-21T14:47:08.039Z,12.35
2019-02-21T14:49:38.001Z,12.23
2019-02-21T14:52:07.861Z,13.50
2019-02-21T14:54:38.180Z,14.38
2019-02-21T14:57:08.095Z,15.15
2019-02-21T14:59:37.865Z,15.38
2019-02-21T15:02:07.929Z,15.78
2019-02-21T15:04:38.383Z,15.78
2019-02-21T15:07:08.394Z,16.30
2019-02-21T15:09:38.251Z,17.30
2019-02-21T15:12:08.288Z,17.27
2019-02-21T15:14:38.242Z,16.45
2019-02-21T15:17:08.108Z,17.42
2019-02-21T15:19:37.759Z,17.37
2019-02-21T15:22:07.729Z,17.75
2019-02-21T15:24:37.790Z,16.85
2019-02-21T15:27:08.802Z,17.60
2019-02-21T15:29:41.479Z,17.05
2019-02-21T15:32:12.380Z,16.60
2019-02-21T15:34:42.040Z,16.65
2019-02-21T15:37:11.968Z,16.40
2019-02-21T15:39:42.990Z,16.95
2019-02-21T15:42:12.804Z,16.23
2019-02-21T15:44:42.659Z,16.07
2019-02-21T15:47:12.506Z,16.20
2019-02-21T15:49:42.376Z,15.68
2019-02-21T15:52:21.838Z,16.65
2019-02-21T15:54:43.497Z,16.15
2019-02-21T15:57:13.359Z,16.65
2019-02-21T15:59:43.126Z,17.27
2019-02-21T16:02:12.777Z,16.25
2019-02-21T16:04:42.546Z,16.62
2019-02-21T16:07:12.408Z,16.77
2019-02-21T16:09:42.170Z,16.30
2019-02-21T16:12:12.027Z,17.15
2019-02-21T16:14:41.689Z,16.10
2019-02-21T16:17:11.541Z,15.95
2019-02-21T16:19:41.318Z,15.80
2019-02-21T16:22:11.060Z,15.48
2019-02-21T16:24:40.800Z,15.30
2019-02-21T16:27:10.598Z,15.85
2019-02-21T16:29:40.364Z,15.50
2019-02-21T16:32:10.073Z,15.72
2019-02-21T16:34:39.924Z,14.98
2019-02-21T16:37:09.688Z,15.85
2019-02-21T16:39:39.842Z,15.78
2019-02-21T16:42:09.653Z,15.48
2019-02-21T16:44:39.705Z,15.38
2019-02-21T16:47:09.571Z,15.05
2019-02-21T16:49:39.373Z,15.80
2019-02-21T16:52:09.399Z,15.45
2019-02-21T16:54:39.460Z,15.70
2019-02-21T16:57:09.330Z,15.98
2019-02-21T16:59:39.287Z,15.32
2019-02-21T17:02:09.159Z,14.83
2019-02-21T17:04:39.115Z,15.23
2019-02-21T17:07:15.956Z,16.17
2019-02-21T17:09:40.494Z,24.80
2019-02-21T17:12:10.359Z,30.97
2019-02-21T17:14:40.212Z,18.10
2019-02-21T17:17:09.972Z,18.40
2019-02-21T17:19:40.095Z,18.37
2019-02-21T17:22:10.026Z,16.23
2019-02-21T17:24:39.851Z,17.15
2019-02-21T17:27:09.795Z,16.75
2019-02-21T17:29:39.823Z,15.25
2019-02-21T17:32:09.607Z,15.53
2019-02-21T17:34:39.442Z,14.68
2019-02-21T17:37:09.392Z,16.02
2019-02-21T17:39:39.150Z,15.30
2019-02-21T17:42:09.032Z,15.93
2019-02-21T17:44:38.655Z,15.55
2019-02-21T17:47:09.284Z,14.53
2019-02-21T17:49:39.213Z,14.35
2019-02-21T17:52:09.114Z,15.08
2019-02-21T17:54:39.140Z,15.13
2019-02-21T17:57:08.974Z,14.15
2019-02-21T17:59:38.860Z,15.13
2019-02-21T18:02:08.888Z,15.50
2019-02-21T18:04:38.832Z,14.95
2019-02-21T18:07:08.689Z,15.03
2019-02-21T18:09:38.671Z,17.23
2019-02-21T18:12:08.536Z,16.25
2019-02-21T18:14:38.488Z,16.32
2019-02-21T18:17:08.348Z,16.48
2019-02-21T18:19:38.133Z,16.17
2019-02-21T18:22:07.989Z,18.12
2019-02-21T18:24:37.937Z,16.87
2019-02-21T18:27:07.768Z,17.23
2019-02-21T18:29:37.717Z,17.45
2019-02-21T18:32:07.646Z,18.23
2019-02-21T18:34:37.697Z,17.98
2019-02-21T18:37:07.526Z,16.82
2019-02-21T18:39:37.404Z,18.75
2019-02-21T18:42:07.228Z,19.17
2019-02-21T18:44:37.054Z,16.52
2019-02-21T18:47:06.768Z,15.60
2019-02-21T18:49:36.529Z,17.45
2019-02-21T18:52:06.310Z,17.95
2019-02-21T18:54:36.065Z,19.75
2019-02-21T18:57:06.116Z,19.30
2019-02-21T18:59:36.125Z,17.73
2019-02-21T19:02:06.071Z,19.52
2019-02-21T19:04:35.935Z,16.97
2019-02-21T19:07:05.984Z,18.05
2019-02-21T19:09:35.847Z,18.15
2019-02-21T19:12:05.805Z,17.55
2019-02-21T19:14:35.834Z,17.87
2019-02-21T19:17:05.996Z,17.15
2019-02-21T19:19:35.613Z,18.80
2019-02-21T19:22:05.641Z,17.92
2019-02-21T19:24:37.032Z,16.12
2019-02-21T19:27:07.103Z,17.48
2019-02-21T19:29:37.156Z,18.25
2019-02-21T19:32:08.626Z,16.37
2019-02-21T19:34:39.681Z,17.23
2019-02-21T19:37:09.716Z,17.57
2019-02-21T19:39:39.765Z,18.10
2019-02-21T19:42:09.794Z,19.30
2019-02-21T19:44:39.676Z,18.10
2019-02-21T19:47:09.433Z,17.15
2019-02-21T19:49:39.208Z,16.93
2019-02-21T19:52:09.004Z,18.95
2019-02-21T19:54:38.802Z,19.17
2019-02-21T19:57:08.659Z,18.12
2019-02-21T19:59:38.453Z,17.20
2019-02-21T20:02:08.576Z,18.40
2019-02-21T20:04:38.600Z,18.12
2019-02-21T20:07:08.382Z,18.92
2019-02-21T20:09:38.075Z,17.62
2019-02-21T20:12:08.135Z,17.73
2019-02-21T20:14:37.822Z,16.50
2019-02-21T20:17:07.705Z,18.40
2019-02-21T20:19:37.748Z,17.30
2019-02-21T20:22:07.627Z,17.92
2019-02-21T20:24:37.298Z,17.65
2019-02-21T20:27:08.106Z,16.35
2019-02-21T20:29:38.108Z,17.17
2019-02-21T20:32:07.989Z,17.42
2019-02-21T20:34:38.016Z,17.70
2019-02-21T20:37:07.968Z,17.48
2019-02-21T20:39:37.896Z,17.90
2019-02-21T20:42:07.892Z,17.27
2019-02-21T20:44:37.687Z,18.42
2019-02-21T20:47:07.441Z,17.90
2019-02-21T20:49:37.326Z,18.67
2019-02-21T20:52:07.246Z,18.20
2019-02-21T20:54:37.062Z,17.90
2019-02-21T20:57:06.973Z,17.10
2019-02-21T20:59:36.787Z,17.95
2019-02-21T21:02:06.740Z,17.85
2019-02-21T21:04:36.694Z,16.97
2019-02-21T21:07:06.716Z,18.67
2019-02-21T21:09:36.497Z,17.07
2019-02-21T21:12:06.256Z,17.98
2019-02-21T21:14:36.066Z,18.60
2019-02-21T21:17:05.825Z,17.57
2019-02-21T21:19:36.467Z,18.10
2019-02-21T21:22:06.695Z,18.02
2019-02-21T21:24:36.493Z,18.52
2019-02-21T21:27:06.322Z,17.32
2019-02-21T21:29:36.112Z,18.57
2019-02-21T21:32:05.897Z,17.37
2019-02-21T21:34:35.657Z,18.37
2019-02-21T21:37:05.440Z,18.20
2019-02-21T21:39:35.297Z,18.12
2019-02-21T21:42:05.252Z,19.55
2019-02-21T21:44:35.103Z,18.48
2019-02-21T21:47:05.111Z,17.30
2019-02-21T21:49:34.905Z,17.82
2019-02-21T21:52:04.620Z,16.87
2019-02-21T21:54:34.481Z,17.62
2019-02-21T21:57:04.542Z,16.75
2019-02-21T21:59:34.501Z,16.65
2019-02-21T22:02:05.728Z,16.67
2019-02-21T22:04:35.684Z,17.15
2019-02-21T22:07:05.932Z,19.75
2019-02-21T22:09:35.862Z,18.00
2019-02-21T22:12:06.111Z,18.92
2019-02-21T22:14:35.971Z,17.50
2019-02-21T22:17:05.995Z,19.20
2019-02-21T22:19:35.953Z,16.93
2019-02-21T22:22:05.801Z,17.35
2019-02-21T22:24:35.851Z,17.92
2019-02-21T22:27:05.674Z,17.37
2019-02-21T22:29:35.553Z,15.08
2019-02-21T22:32:05.483Z,16.20
2019-02-21T22:34:35.192Z,16.15
2019-02-21T22:37:06.461Z,15.70
2019-02-21T22:39:36.348Z,14.95
2019-02-21T22:42:07.674Z,15.32
2019-02-21T22:44:37.459Z,14.45
2019-02-21T22:47:07.218Z,14.70
2019-02-21T22:49:37.069Z,14.65
2019-02-21T22:52:06.831Z,14.40
2019-02-21T22:54:36.616Z,15.03
2019-02-21T22:57:06.373Z,14.33
2019-02-21T22:59:36.319Z,15.08
2019-02-21T23:02:06.351Z,14.73
2019-02-21T23:04:40.817Z,14.25
2019-02-21T23:07:17.996Z,14.90
2019-02-21T23:09:48.045Z,14.03
2019-02-21T23:12:17.969Z,14.40
2019-02-21T23:14:47.924Z,13.22
2019-02-21T23:17:17.786Z,15.45
2019-02-21T23:19:47.855Z,14.43
2019-02-21T23:22:17.715Z,14.13
2019-02-21T23:24:47.761Z,14.75
2019-02-21T23:27:17.693Z,14.28
2019-02-21T23:29:47.548Z,13.38
2019-02-21T23:32:17.602Z,14.20
2019-02-21T23:34:47.438Z,14.20
2019-02-21T23:37:17.316Z,13.85
2019-02-21T23:39:47.246Z,15.25
2019-02-21T23:42:18.150Z,14.15
2019-02-21T23:44:48.304Z,14.68
2019-02-21T23:47:18.021Z,14.03
2019-02-21T23:49:47.883Z,13.93
2019-02-21T23:52:17.663Z,14.38
2019-02-21T23:54:47.416Z,13.30
2019-02-21T23:57:17.373Z,14.10
2019-02-21T23:59:47.059Z,12.60
